Darstellungsparameter: Aktuell verwendete Einstellungen:
Skalierung der Graphiken ... ?
xyx+y,   Skalierungsfaktor:      Skalierung: Modus: x, Faktor: 1
Darstellungszeitraum ... ?
Vom - - bis: - -   Zeitraum: 05.10.2022 - 06.10.2022
Min/Max/Avg-Anzeige ... ?
Zeige MMA aktuell
Zeige MMA Monat
Zeige MMA alles
Zeige --A aktuell
Zeige --A Monat
Zeige --A alles
Keine MMA-Anzeige
MMA:
Keine MMA-Graphiken
MMA-Basis: 05.10.2022 - 06.10.2022
Quicknavigation für Darstellung... ?
Tage:      1T, 2T, 3T, 5T -1T -2T -3T -5T +1T +2T +3T +5T
Wochen: 1W, 2W, 3W -1W -2W -3W +1W +2W +3W
Monate: 1M, 3M, 6M -1M -3M -6M +1M +3M +6M
Jahre:    1J, 3J, 5J, 10J -1J -3J -5J -10J +1J +3J +5J +10J
Nutze für die Darstellung ... ?
Originaldaten oder Mittelwerte auf ...
Stundenbasis Tagesbasis Wochenbasis
Monatsbasis Jahresbasis      Datenbasis: Original-Daten
Darstellen als:
Statistik (Auto) Statistik J:M      Darstellung:

Der gewünschte Datumsbereich war nicht gültig/verfügbar und wurde korrigiert....
Das angegebene Enddatum (18.02.2023 23:59:59) liegt in der Zukunft.
Das angegebene Startdatum (18.02.2023 00:00:00) liegt in der Zukunft.


Zur Graphik,    zurück zur Übersicht aller Sensoren.
 
Tabellarische Datenbersicht: ?
 
Sensor: Nr:Datum:Temp:Abs-Feuchte:Windchill:Wind:
Aussen-T/F 1 05-10-2022 02:00:00 8.3 C 7.92 g/m*3 8.3 C 0 km/h
2 05-10-2022 02:05:00 8.3 C 7.92 g/m*3 8.3 C 0 km/h
3 05-10-2022 02:10:00 8.3 C 7.92 g/m*3 8.3 C 0 km/h
4 05-10-2022 02:15:00 8.2 C 7.96 g/m*3 8.2 C 0 km/h
5 05-10-2022 02:20:00 8.2 C 7.96 g/m*3 8.2 C 0 km/h
6 05-10-2022 02:25:00 8.1 C 7.82 g/m*3 8.1 C 0 km/h
7 05-10-2022 02:30:00 8.1 C 7.82 g/m*3 8.1 C 0 km/h
8 05-10-2022 02:35:00 8.1 C 7.82 g/m*3 8.1 C 0 km/h
9 05-10-2022 02:40:00 8.1 C 7.9 g/m*3 8.1 C 0 km/h
10 05-10-2022 02:45:00 8.1 C 7.9 g/m*3 8.1 C 0 km/h
11 05-10-2022 02:50:00 8.2 C 7.96 g/m*3 8.2 C 0 km/h
12 05-10-2022 02:55:00 8.3 C 8.01 g/m*3 8.3 C 0 km/h
13 05-10-2022 03:00:00 8.3 C 8.01 g/m*3 8.3 C 0 km/h
14 05-10-2022 03:05:00 8.3 C 8.01 g/m*3 8.3 C 0 km/h
15 05-10-2022 03:10:00 8.3 C 8.01 g/m*3 8.3 C 0 km/h
16 05-10-2022 03:15:00 8.2 C 7.96 g/m*3 8.2 C 0 km/h
17 05-10-2022 03:20:00 8.1 C 7.9 g/m*3 8.1 C 0 km/h
18 05-10-2022 03:25:00 7.9 C 7.8 g/m*3 7.9 C 0 km/h
19 05-10-2022 03:30:00 7.8 C 7.75 g/m*3 7.8 C 0 km/h
20 05-10-2022 03:35:00 7.8 C 7.75 g/m*3 7.8 C 0 km/h
21 05-10-2022 03:40:00 7.8 C 7.75 g/m*3 7.8 C 0 km/h
22 05-10-2022 03:45:00 7.8 C 7.75 g/m*3 7.8 C 0 km/h
23 05-10-2022 03:50:00 8 C 7.85 g/m*3 8 C 3.2 km/h
24 05-10-2022 03:55:00 8.2 C 8.04 g/m*3 8.2 C 0 km/h
25 05-10-2022 04:00:00 8.4 C 8.14 g/m*3 8.4 C 1.6 km/h
Sensor: Nr:Datum:Temp:Abs-Feuchte:Windchill:Wind:
Aussen-T/F 26 05-10-2022 04:05:00 8.6 C 8.25 g/m*3 8.6 C 0 km/h
27 05-10-2022 04:10:00 8.7 C 8.3 g/m*3 8.7 C 0 km/h
28 05-10-2022 04:15:00 8.8 C 8.36 g/m*3 8.8 C 0 km/h
29 05-10-2022 04:20:00 8.9 C 8.41 g/m*3 8.9 C 0 km/h
30 05-10-2022 04:25:00 8.9 C 8.41 g/m*3 8.9 C 0 km/h
31 05-10-2022 04:30:00 8.9 C 8.41 g/m*3 8.9 C 0 km/h
32 05-10-2022 04:35:00 9 C 8.46 g/m*3 9 C 0 km/h
33 05-10-2022 04:40:00 9 C 8.46 g/m*3 9 C 0 km/h
34 05-10-2022 04:45:00 8.9 C 8.41 g/m*3 8.9 C 0 km/h
35 05-10-2022 04:50:00 8.8 C 8.36 g/m*3 8.8 C 0 km/h
36 05-10-2022 04:55:00 8.7 C 8.3 g/m*3 8.7 C 0 km/h
37 05-10-2022 05:00:00 8.7 C 8.22 g/m*3 8.7 C 0 km/h
38 05-10-2022 05:05:00 8.7 C 8.22 g/m*3 8.7 C 3.2 km/h
39 05-10-2022 05:10:00 8.8 C 8.36 g/m*3 8.8 C 1.6 km/h
40 05-10-2022 05:15:00 8.9 C 8.41 g/m*3 8.9 C 0 km/h
41 05-10-2022 05:20:00 8.9 C 8.41 g/m*3 8.9 C 0 km/h
42 05-10-2022 05:25:00 9 C 8.46 g/m*3 9 C 0 km/h
43 05-10-2022 05:30:00 9.1 C 8.52 g/m*3 9.1 C 0 km/h
44 05-10-2022 05:35:00 9.2 C 8.57 g/m*3 9.2 C 0 km/h
45 05-10-2022 05:40:00 9.2 C 8.57 g/m*3 9.2 C 0 km/h
46 05-10-2022 05:45:00 9.2 C 8.57 g/m*3 9.2 C 0 km/h
47 05-10-2022 05:50:00 9.2 C 8.57 g/m*3 9.2 C 0 km/h
48 05-10-2022 05:55:00 9.3 C 8.63 g/m*3 9.3 C 0 km/h
49 05-10-2022 06:00:00 9.3 C 8.63 g/m*3 9.3 C 0 km/h
50 05-10-2022 06:05:00 9.4 C 8.68 g/m*3 9.4 C 0 km/h
Sensor: Nr:Datum:Temp:Abs-Feuchte:Windchill:Wind:
Aussen-T/F 51 05-10-2022 06:10:00 9.4 C 8.68 g/m*3 9.4 C 1.6 km/h
52 05-10-2022 06:15:00 9.5 C 8.74 g/m*3 9.5 C 0 km/h
53 05-10-2022 06:20:00 9.5 C 8.74 g/m*3 9.5 C 0 km/h
54 05-10-2022 06:25:00 9.6 C 8.79 g/m*3 9.6 C 0 km/h
55 05-10-2022 06:30:00 9.6 C 8.79 g/m*3 9.6 C 0 km/h
56 05-10-2022 06:35:00 9.6 C 8.79 g/m*3 9.6 C 0 km/h
57 05-10-2022 06:40:00 9.6 C 8.79 g/m*3 9.6 C 0 km/h
58 05-10-2022 06:45:00 9.6 C 8.79 g/m*3 9.6 C 0 km/h
59 05-10-2022 06:50:00 9.6 C 8.79 g/m*3 9.6 C 0 km/h
60 05-10-2022 06:55:00 9.6 C 8.79 g/m*3 9.6 C 0 km/h
61 05-10-2022 07:00:00 9.6 C 8.79 g/m*3 9.6 C 0 km/h
62 05-10-2022 07:05:00 9.7 C 8.85 g/m*3 9.7 C 0 km/h
63 05-10-2022 07:10:00 9.7 C 8.85 g/m*3 9.7 C 0 km/h
64 05-10-2022 07:15:00 9.7 C 8.85 g/m*3 9.7 C 0 km/h
65 05-10-2022 07:20:00 9.8 C 8.91 g/m*3 9.8 C 0 km/h
66 05-10-2022 07:25:00 9.8 C 8.91 g/m*3 9.8 C 0 km/h
67 05-10-2022 07:30:00 9.9 C 8.96 g/m*3 9.9 C 0 km/h
68 05-10-2022 07:35:00 9.9 C 8.96 g/m*3 9.9 C 0 km/h
69 05-10-2022 07:40:00 9.9 C 8.96 g/m*3 9.9 C 0 km/h
70 05-10-2022 07:45:00 10 C 9.02 g/m*3 10 C 1.6 km/h
71 05-10-2022 07:50:00 10.1 C 9.08 g/m*3 10.1 C 0 km/h
72 05-10-2022 07:55:00 10.1 C 9.08 g/m*3 10.1 C 0 km/h
73 05-10-2022 08:00:00 10.1 C 9.08 g/m*3 10.1 C 0 km/h
74 05-10-2022 08:05:00 10.1 C 9.08 g/m*3 10.1 C 0 km/h
75 05-10-2022 08:10:00 10 C 9.02 g/m*3 10 C 0 km/h
Sensor: Nr:Datum:Temp:Abs-Feuchte:Windchill:Wind:
Aussen-T/F 76 05-10-2022 08:15:00 9.9 C 8.96 g/m*3 9.9 C 0 km/h
77 05-10-2022 08:20:00 9.8 C 8.91 g/m*3 9.8 C 0 km/h
78 05-10-2022 08:25:00 9.7 C 8.85 g/m*3 9.7 C 0 km/h
79 05-10-2022 08:30:00 9.7 C 8.85 g/m*3 9.7 C 0 km/h
80 05-10-2022 08:35:00 9.6 C 8.79 g/m*3 9.6 C 0 km/h
81 05-10-2022 08:40:00 9.4 C 8.68 g/m*3 9.4 C 0 km/h
82 05-10-2022 08:45:00 9.3 C 8.63 g/m*3 9.3 C 0 km/h
83 05-10-2022 08:50:00 9.3 C 8.63 g/m*3 9.3 C 0 km/h
84 05-10-2022 08:55:00 9.2 C 8.57 g/m*3 9.2 C 0 km/h
85 05-10-2022 09:00:00 9.2 C 8.57 g/m*3 9.2 C 0 km/h
86 05-10-2022 09:05:00 9.2 C 8.57 g/m*3 9.2 C 0 km/h
87 05-10-2022 09:10:00 9.2 C 8.57 g/m*3 9.2 C 0 km/h
88 05-10-2022 09:15:00 9.2 C 8.57 g/m*3 9.2 C 0 km/h
89 05-10-2022 09:20:00 9.3 C 8.63 g/m*3 9.3 C 0 km/h
90 05-10-2022 09:25:00 9.4 C 8.68 g/m*3 9.4 C 0 km/h
91 05-10-2022 09:30:00 9.5 C 8.74 g/m*3 9.5 C 1.6 km/h
92 05-10-2022 09:35:00 9.7 C 8.85 g/m*3 9.7 C 0 km/h
93 05-10-2022 09:40:00 9.9 C 8.96 g/m*3 9.9 C 0 km/h
94 05-10-2022 09:45:00 10.5 C 9.41 g/m*3 10.5 C 0 km/h
95 05-10-2022 09:50:00 10.9 C 9.65 g/m*3 10.9 C 0 km/h
96 05-10-2022 09:55:00 11.2 C 9.83 g/m*3 11.2 C 0 km/h
97 05-10-2022 10:00:00 11.4 C 9.96 g/m*3 11.4 C 0 km/h
98 05-10-2022 10:05:00 11.7 C 10.15 g/m*3 11.7 C 0 km/h
99 05-10-2022 10:10:00 11.7 C 10.15 g/m*3 11.7 C 0 km/h
100 05-10-2022 10:15:00 11.8 C 10.21 g/m*3 11.8 C 0 km/h
Sensor: Nr:Datum:Temp:Abs-Feuchte:Windchill:Wind:
Aussen-T/F 101 05-10-2022 10:20:00 12.1 C 10.4 g/m*3 12.1 C 0 km/h
102 05-10-2022 10:25:00 12.3 C 10.53 g/m*3 12.3 C 0 km/h
103 05-10-2022 10:30:00 12.4 C 10.6 g/m*3 12.4 C 0 km/h
104 05-10-2022 10:35:00 12.5 C 10.66 g/m*3 12.5 C 0 km/h
105 05-10-2022 10:40:00 12.6 C 10.73 g/m*3 12.6 C 0 km/h
106 05-10-2022 10:45:00 12.8 C 10.87 g/m*3 12.8 C 0 km/h
107 05-10-2022 10:50:00 12.8 C 10.87 g/m*3 12.8 C 0 km/h
108 05-10-2022 10:55:00 12.9 C 10.93 g/m*3 12.9 C 0 km/h
109 05-10-2022 11:00:00 13 C 11 g/m*3 13 C 0 km/h
110 05-10-2022 11:05:00 13 C 11 g/m*3 13 C 0 km/h
111 05-10-2022 11:10:00 13.1 C 11.07 g/m*3 13.1 C 1.6 km/h
112 05-10-2022 11:15:00 13.2 C 11.14 g/m*3 13.2 C 1.6 km/h
113 05-10-2022 11:20:00 13.3 C 11.09 g/m*3 13.3 C 0 km/h
114 05-10-2022 11:25:00 13.4 C 11.16 g/m*3 13.4 C 0 km/h
115 05-10-2022 11:30:00 13.4 C 11.16 g/m*3 13.4 C 1.6 km/h
116 05-10-2022 11:35:00 13.5 C 11.11 g/m*3 13.5 C 1.6 km/h
117 05-10-2022 11:40:00 13.6 C 11.18 g/m*3 13.6 C 0 km/h
118 05-10-2022 11:45:00 13.7 C 11.13 g/m*3 13.7 C 0 km/h
119 05-10-2022 11:50:00 13.8 C 11.2 g/m*3 13.8 C 0 km/h
120 05-10-2022 11:55:00 14.1 C 11.41 g/m*3 14.1 C 0 km/h
121 05-10-2022 12:00:00 14.3 C 11.55 g/m*3 14.3 C 1.6 km/h
122 05-10-2022 12:05:00 14.6 C 11.76 g/m*3 14.6 C 3.2 km/h
123 05-10-2022 12:10:00 14.8 C 11.78 g/m*3 14.8 C 9.7 km/h
124 05-10-2022 12:15:00 15.1 C 11.87 g/m*3 15.1 C 11.3 km/h
125 05-10-2022 12:20:00 15.4 C 11.96 g/m*3 15.4 C 9.7 km/h
Sensor: Nr:Datum:Temp:Abs-Feuchte:Windchill:Wind:
Aussen-T/F 126 05-10-2022 12:25:00 15.7 C 11.91 g/m*3 15.7 C 16.1 km/h
127 05-10-2022 12:30:00 16.1 C 12.06 g/m*3 16.1 C 17.7 km/h
128 05-10-2022 12:35:00 16.3 C 11.79 g/m*3 16.3 C 14.5 km/h
129 05-10-2022 12:40:00 16.6 C 12.01 g/m*3 16.6 C 12.9 km/h
130 05-10-2022 12:45:00 16.7 C 11.8 g/m*3 16.7 C 14.5 km/h
131 05-10-2022 12:50:00 16.8 C 12.01 g/m*3 16.8 C 8.1 km/h
132 05-10-2022 12:55:00 16.9 C 11.94 g/m*3 16.9 C 9.7 km/h
133 05-10-2022 13:00:00 17.1 C 12.08 g/m*3 17.1 C 12.9 km/h
134 05-10-2022 13:05:00 17.3 C 12.08 g/m*3 17.3 C 14.5 km/h
135 05-10-2022 13:10:00 17.4 C 12 g/m*3 17.4 C 14.5 km/h
136 05-10-2022 13:15:00 17.5 C 11.93 g/m*3 17.5 C 16.1 km/h
137 05-10-2022 13:20:00 17.5 C 11.93 g/m*3 17.5 C 17.7 km/h
138 05-10-2022 13:25:00 17.4 C 12 g/m*3 17.4 C 20.9 km/h
139 05-10-2022 13:30:00 17.3 C 11.93 g/m*3 17.3 C 9.7 km/h
140 05-10-2022 13:35:00 17.3 C 11.93 g/m*3 17.3 C 16.1 km/h
141 05-10-2022 13:40:00 17.3 C 12.08 g/m*3 17.3 C 17.7 km/h
142 05-10-2022 13:45:00 17.4 C 12 g/m*3 17.4 C 12.9 km/h
143 05-10-2022 13:50:00 17.6 C 12.15 g/m*3 17.6 C 11.3 km/h
144 05-10-2022 13:55:00 17.7 C 12.22 g/m*3 17.7 C 14.5 km/h
145 05-10-2022 14:00:00 17.8 C 12.29 g/m*3 17.8 C 8.1 km/h
146 05-10-2022 14:05:00 17.8 C 12.29 g/m*3 17.8 C 12.9 km/h
147 05-10-2022 14:10:00 17.9 C 12.52 g/m*3 17.9 C 11.3 km/h
148 05-10-2022 14:15:00 18.1 C 12.36 g/m*3 18.1 C 14.5 km/h
149 05-10-2022 14:20:00 18.2 C 12.43 g/m*3 18.2 C 19.3 km/h
150 05-10-2022 14:25:00 18.2 C 12.43 g/m*3 18.2 C 14.5 km/h
Sensor: Nr:Datum:Temp:Abs-Feuchte:Windchill:Wind:
Aussen-T/F 151 05-10-2022 14:30:00 18.4 C 12.58 g/m*3 18.4 C 9.7 km/h
152 05-10-2022 14:35:00 18.7 C 12.81 g/m*3 18.7 C 12.9 km/h
153 05-10-2022 14:40:00 18.8 C 12.56 g/m*3 18.8 C 20.9 km/h
154 05-10-2022 14:45:00 18.9 C 12.64 g/m*3 18.9 C 12.9 km/h
155 05-10-2022 14:50:00 19.1 C 12.79 g/m*3 19.1 C 6.4 km/h
156 05-10-2022 14:55:00 19.3 C 12.77 g/m*3 19.3 C 12.9 km/h
157 05-10-2022 15:00:00 19.2 C 12.53 g/m*3 19.2 C 19.3 km/h
158 05-10-2022 15:05:00 19.2 C 12.53 g/m*3 19.2 C 14.5 km/h
159 05-10-2022 15:10:00 19.3 C 12.44 g/m*3 19.3 C 16.1 km/h
160 05-10-2022 15:15:00 19.3 C 12.61 g/m*3 19.3 C 14.5 km/h
161 05-10-2022 15:20:00 19.6 C 12.83 g/m*3 19.6 C 12.9 km/h
162 05-10-2022 15:25:00 19.8 C 12.64 g/m*3 19.8 C 14.5 km/h
163 05-10-2022 15:30:00 19.9 C 12.54 g/m*3 19.9 C 16.1 km/h
164 05-10-2022 15:35:00 20.1 C 12.69 g/m*3 20.1 C 12.9 km/h
165 05-10-2022 15:40:00 20.2 C 12.59 g/m*3 20.2 C 12.9 km/h
166 05-10-2022 15:45:00 20.5 C 12.99 g/m*3 20.5 C 6.4 km/h
167 05-10-2022 15:50:00 20.7 C 12.96 g/m*3 20.7 C 9.7 km/h
168 05-10-2022 15:55:00 20.8 C 12.67 g/m*3 20.8 C 11.3 km/h
169 05-10-2022 16:00:00 20.9 C 13.48 g/m*3 20.9 C 6.4 km/h
170 05-10-2022 16:05:00 21.1 C 12.71 g/m*3 21.1 C 9.7 km/h
171 05-10-2022 16:10:00 21.2 C 12.97 g/m*3 21.2 C 6.4 km/h
172 05-10-2022 16:15:00 21.4 C 13.12 g/m*3 21.4 C 4.8 km/h
173 05-10-2022 16:20:00 21.7 C 13.54 g/m*3 21.7 C 1.6 km/h
174 05-10-2022 16:25:00 22 C 13.78 g/m*3 22 C 1.6 km/h
175 05-10-2022 16:30:00 22.2 C 13.74 g/m*3 22.2 C 0 km/h
Sensor: Nr:Datum:Temp:Abs-Feuchte:Windchill:Wind:
Aussen-T/F 176 05-10-2022 16:35:00 22.6 C 13.86 g/m*3 22.6 C 0 km/h
177 05-10-2022 16:40:00 22.8 C 13.61 g/m*3 22.8 C 0 km/h
178 05-10-2022 16:45:00 22.7 C 13.94 g/m*3 22.7 C 0 km/h
179 05-10-2022 16:50:00 22.7 C 14.14 g/m*3 22.7 C 0 km/h
180 05-10-2022 16:55:00 22.6 C 14.06 g/m*3 22.6 C 6.4 km/h
181 05-10-2022 17:00:00 22.4 C 13.9 g/m*3 22.4 C 3.2 km/h
182 05-10-2022 17:05:00 22.4 C 13.5 g/m*3 22.4 C 0 km/h

Legende:
   Min
   Max


Maximal/Minimal-Werte vom 05.10.2022 - 06.10.2022

Sensor Min Max Avg
Temp
(Aussen-T/F)
7.8 °C
05-10-2022  03:30:00
22.8 °C
05-10-2022  16:40:00
12.91 °C
Abs-Feuchte
(Aussen-T/F)
7.75 g/m*3
05-10-2022  03:30:00
14.14 g/m*3
05-10-2022  16:50:00
10.14 g/m*3
Windchill
(Aussen-T/F)
7.8 C
05-10-2022  03:30:00
22.8 C
05-10-2022  16:40:00
12.84 C

Die Daten stammen von einer Davis Vantage Pro 2 Wetter-Station und werden unter Linux mit der Software wview2wettercgi und aufbereitet. Alle Angaben erfolgen ohne Gewähr für ihre Vollständigkeit oder Richtigkeit.
Kontakt: Rainer Krienke krienke@uni-koblenz.de . Meine Webseiten an der Uni Koblenz oder privat.
Version: $Revision: 0.78 $